ARG1251 SBGR-SABE
Flight info
| Callsign | ARG1251 |
|---|---|
| Flight time | 2h 28m |
| Altitude | 34000 |
| Route | UBSOD UZ38 UMDEX DCT CXS DCT UMRUD UN741 PAPIX PAPIX2R |
| Aircraft | B38M/M-SDE1FGHILORVWXY/HB1 |
Departure
| Time | 2026-05-04 22:30 |
|---|---|
| Airport | São Paulo/Guarulhos–Governor André Franco Montoro International Airport (SBGR) |
Arrival
| Time | 2026-05-05 00:58 |
|---|---|
| Airport | Aeroparque Jorge Newbery (SABE) |
| Time | Latitude | Longitude | Altitude | Speed | Heading |
|---|---|---|---|---|---|
| 2026-05-04 22:01 | -23.42834 | -46.47949 | 2464 ft | 0 kts | 265° |
| 2026-05-04 22:19 | -23.42834 | -46.47947 | 2464 ft | 2 kts | 264° |
| 2026-05-04 22:19 | -23.42830 | -46.47920 | 2464 ft | 4 kts | 256° |
| 2026-05-04 22:19 | -23.42821 | -46.47893 | 2467 ft | 4 kts | 242° |
| 2026-05-04 22:20 | -23.42806 | -46.47870 | 2464 ft | 4 kts | 219° |
| 2026-05-04 22:20 | -23.42784 | -46.47859 | 2465 ft | 4 kts | 180° |
| 2026-05-04 22:20 | -23.42776 | -46.47860 | 2464 ft | 1 kts | 169° |
| 2026-05-04 22:25 | -23.42777 | -46.47859 | 2464 ft | 0 kts | 169° |
| 2026-05-04 22:25 | -23.42804 | -46.47854 | 2465 ft | 9 kts | 169° |
| 2026-05-04 22:25 | -23.42891 | -46.47838 | 2465 ft | 16 kts | 171° |
| 2026-05-04 22:26 | -23.43018 | -46.47813 | 2470 ft | 16 kts | 164° |
| 2026-05-04 22:26 | -23.43108 | -46.47858 | 2463 ft | 17 kts | 232° |
| 2026-05-04 22:26 | -23.43165 | -46.47993 | 2463 ft | 22 kts | 256° |
| 2026-05-04 22:26 | -23.43210 | -46.48163 | 2464 ft | 24 kts | 252° |
| 2026-05-04 22:27 | -23.43252 | -46.48315 | 2464 ft | 15 kts | 254° |
| 2026-05-04 22:27 | -23.43302 | -46.48355 | 2464 ft | 0 kts | 187° |
| 2026-05-04 22:28 | -23.43304 | -46.48356 | 2464 ft | 1 kts | 187° |
| 2026-05-04 22:28 | -23.43318 | -46.48355 | 2470 ft | 4 kts | 172° |
| 2026-05-04 22:29 | -23.43362 | -46.48342 | 2465 ft | 10 kts | 166° |
| 2026-05-04 22:29 | -23.43414 | -46.48286 | 2463 ft | 14 kts | 82° |
| 2026-05-04 22:29 | -23.43390 | -46.48193 | 2467 ft | 20 kts | 73° |
| 2026-05-04 22:29 | -23.43284 | -46.47797 | 2463 ft | 93 kts | 73° |
| 2026-05-04 22:30 | -23.43030 | -46.46860 | 2466 ft | 163 kts | 74° |
| 2026-05-04 22:30 | -23.42654 | -46.45517 | 2759 ft | 198 kts | 73° |
| 2026-05-04 22:30 | -23.42227 | -46.44092 | 3687 ft | 202 kts | 72° |
| 2026-05-04 22:30 | -23.41782 | -46.42609 | 4639 ft | 211 kts | 72° |
| 2026-05-04 22:31 | -23.41334 | -46.41065 | 5623 ft | 214 kts | 72° |
| 2026-05-04 22:31 | -23.40900 | -46.39514 | 6528 ft | 216 kts | 71° |
| 2026-05-04 22:31 | -23.40432 | -46.37865 | 6957 ft | 239 kts | 72° |
| 2026-05-04 22:31 | -23.40245 | -46.36019 | 7494 ft | 257 kts | 97° |
| 2026-05-04 22:32 | -23.40740 | -46.34082 | 8035 ft | 276 kts | 108° |
| 2026-05-04 22:32 | -23.41376 | -46.32037 | 8610 ft | 293 kts | 109° |
| 2026-05-04 22:32 | -23.42051 | -46.29907 | 9016 ft | 299 kts | 109° |
| 2026-05-04 22:32 | -23.42852 | -46.27849 | 9249 ft | 300 kts | 125° |
| 2026-05-04 22:33 | -23.44319 | -46.26296 | 10173 ft | 295 kts | 150° |
| 2026-05-04 22:33 | -23.46245 | -46.25459 | 10722 ft | 307 kts | 172° |
| 2026-05-04 22:33 | -23.48421 | -46.25465 | 11118 ft | 322 kts | 192° |
| 2026-05-04 22:33 | -23.50695 | -46.25894 | 11494 ft | 341 kts | 191° |
| 2026-05-04 22:34 | -23.53012 | -46.26621 | 11966 ft | 351 kts | 208° |
| 2026-05-04 22:34 | -23.54965 | -46.28215 | 12670 ft | 352 kts | 230° |
| 2026-05-04 22:34 | -23.56271 | -46.30469 | 13403 ft | 355 kts | 248° |
| 2026-05-04 22:34 | -23.56932 | -46.33074 | 14118 ft | 358 kts | 256° |
| 2026-05-04 22:35 | -23.57501 | -46.35737 | 14751 ft | 362 kts | 257° |
| 2026-05-04 22:35 | -23.58057 | -46.38415 | 15434 ft | 363 kts | 257° |
| 2026-05-04 22:35 | -23.58603 | -46.41109 | 16003 ft | 368 kts | 257° |
| 2026-05-04 22:35 | -23.59146 | -46.43826 | 16144 ft | 366 kts | 257° |
| 2026-05-04 22:36 | -23.59678 | -46.46504 | 16197 ft | 366 kts | 257° |
| 2026-05-04 22:36 | -23.60214 | -46.49212 | 16222 ft | 365 kts | 258° |
| 2026-05-04 22:36 | -23.60725 | -46.51929 | 16266 ft | 367 kts | 260° |
| 2026-05-04 22:36 | -23.61128 | -46.54673 | 16916 ft | 366 kts | 261° |
| 2026-05-04 22:37 | -23.61540 | -46.57425 | 17520 ft | 369 kts | 260° |
| 2026-05-04 22:37 | -23.61959 | -46.60194 | 18136 ft | 371 kts | 260° |
| 2026-05-04 22:37 | -23.62381 | -46.62975 | 18685 ft | 373 kts | 260° |
| 2026-05-04 22:37 | -23.63111 | -46.65685 | 19176 ft | 375 kts | 244° |
| 2026-05-04 22:38 | -23.64419 | -46.68148 | 19686 ft | 377 kts | 240° |
| 2026-05-04 22:38 | -23.65788 | -46.70598 | 20162 ft | 379 kts | 240° |
| 2026-05-04 22:38 | -23.67177 | -46.73044 | 20670 ft | 380 kts | 239° |
| 2026-05-04 22:38 | -23.68585 | -46.75497 | 21153 ft | 382 kts | 239° |
| 2026-05-04 22:39 | -23.70056 | -46.77937 | 21637 ft | 385 kts | 233° |
| 2026-05-04 22:39 | -23.72035 | -46.79921 | 22162 ft | 391 kts | 217° |
| 2026-05-04 22:39 | -23.74367 | -46.81490 | 22630 ft | 394 kts | 215° |
| 2026-05-04 22:39 | -23.76700 | -46.83016 | 23076 ft | 397 kts | 214° |
| 2026-05-04 22:40 | -23.79113 | -46.84571 | 23528 ft | 399 kts | 214° |
| 2026-05-04 22:40 | -23.81512 | -46.86100 | 23942 ft | 400 kts | 214° |
| 2026-05-04 22:40 | -23.83895 | -46.87610 | 24305 ft | 402 kts | 214° |
| 2026-05-04 22:40 | -23.86326 | -46.89148 | 24659 ft | 405 kts | 214° |
| 2026-05-04 22:41 | -23.88769 | -46.90692 | 25034 ft | 407 kts | 214° |
| 2026-05-04 22:41 | -23.91225 | -46.92246 | 25400 ft | 409 kts | 215° |
| 2026-05-04 22:41 | -23.93698 | -46.93810 | 25748 ft | 411 kts | 215° |
| 2026-05-04 22:41 | -23.96182 | -46.95382 | 26103 ft | 413 kts | 215° |
| 2026-05-04 22:42 | -23.98677 | -46.96962 | 26463 ft | 416 kts | 215° |
| 2026-05-04 22:42 | -24.01185 | -46.98551 | 26797 ft | 418 kts | 215° |
| 2026-05-04 22:42 | -24.03711 | -47.00151 | 27133 ft | 421 kts | 216° |
| 2026-05-04 22:42 | -24.06253 | -47.01763 | 27455 ft | 423 kts | 216° |
| 2026-05-04 22:43 | -24.08805 | -47.03382 | 27773 ft | 425 kts | 216° |
| 2026-05-04 22:43 | -24.11367 | -47.05008 | 28099 ft | 427 kts | 216° |
| 2026-05-04 22:43 | -24.13944 | -47.06644 | 28396 ft | 429 kts | 216° |
| 2026-05-04 22:43 | -24.16537 | -47.08291 | 28653 ft | 432 kts | 216° |
| 2026-05-04 22:44 | -24.19144 | -47.09948 | 29018 ft | 433 kts | 216° |
| 2026-05-04 22:44 | -24.21756 | -47.11609 | 29328 ft | 436 kts | 217° |
| 2026-05-04 22:44 | -24.24391 | -47.13284 | 29637 ft | 438 kts | 217° |
| 2026-05-04 22:44 | -24.26960 | -47.15007 | 29932 ft | 438 kts | 219° |
| 2026-05-04 22:45 | -24.29537 | -47.16814 | 30224 ft | 440 kts | 219° |
| 2026-05-04 22:45 | -24.34708 | -47.20408 | 30900 ft | 438 kts | 219° |
| 2026-05-04 22:45 | -24.37282 | -47.22194 | 31298 ft | 437 kts | 219° |
| 2026-05-04 22:46 | -24.39852 | -47.23978 | 31674 ft | 435 kts | 219° |
| 2026-05-04 22:46 | -24.42402 | -47.25751 | 32036 ft | 434 kts | 219° |
| 2026-05-04 22:46 | -24.44947 | -47.27519 | 32444 ft | 432 kts | 219° |
| 2026-05-04 22:46 | -24.47478 | -47.29279 | 32832 ft | 430 kts | 219° |
| 2026-05-04 22:47 | -24.50003 | -47.31036 | 33234 ft | 428 kts | 219° |
| 2026-05-04 22:47 | -24.52511 | -47.32781 | 33630 ft | 426 kts | 219° |
| 2026-05-04 22:47 | -24.55015 | -47.34525 | 34017 ft | 425 kts | 219° |
| 2026-05-04 22:47 | -24.57518 | -47.36268 | 34166 ft | 424 kts | 219° |
| 2026-05-04 22:48 | -24.62465 | -47.39717 | 34148 ft | 420 kts | 220° |
| 2026-05-04 22:48 | -24.67369 | -47.43139 | 34147 ft | 420 kts | 220° |
| 2026-05-04 22:49 | -24.72300 | -47.46583 | 34145 ft | 420 kts | 220° |
| 2026-05-04 22:49 | -24.77237 | -47.50036 | 34143 ft | 420 kts | 220° |
| 2026-05-04 22:50 | -24.82170 | -47.53487 | 34147 ft | 420 kts | 220° |
| 2026-05-04 22:50 | -24.87098 | -47.56940 | 34147 ft | 419 kts | 220° |
| 2026-05-04 22:51 | -24.91989 | -47.60369 | 34145 ft | 419 kts | 220° |
| 2026-05-04 22:51 | -24.96907 | -47.63821 | 34146 ft | 419 kts | 220° |
| 2026-05-04 22:52 | -25.01826 | -47.67276 | 34150 ft | 419 kts | 220° |
| 2026-05-04 22:52 | -25.06741 | -47.70732 | 34138 ft | 419 kts | 220° |
| 2026-05-04 22:53 | -25.11654 | -47.74190 | 34149 ft | 419 kts | 220° |
| 2026-05-04 22:53 | -25.16577 | -47.77658 | 34145 ft | 419 kts | 220° |
| 2026-05-04 22:54 | -25.21492 | -47.81125 | 34156 ft | 419 kts | 220° |
| 2026-05-04 22:54 | -25.26373 | -47.84569 | 34153 ft | 419 kts | 220° |
| 2026-05-04 22:55 | -25.31279 | -47.88039 | 34150 ft | 418 kts | 220° |
| 2026-05-04 22:55 | -25.36179 | -47.91511 | 34153 ft | 418 kts | 220° |
| 2026-05-04 22:56 | -25.41077 | -47.94984 | 34148 ft | 418 kts | 220° |
| 2026-05-04 22:56 | -25.45982 | -47.98465 | 34151 ft | 418 kts | 220° |
| 2026-05-04 22:57 | -25.50872 | -48.01940 | 34147 ft | 417 kts | 221° |
| 2026-05-04 22:57 | -25.54935 | -48.04830 | 34150 ft | 417 kts | 220° |
| 2026-05-04 22:58 | -25.60610 | -48.08870 | 34152 ft | 417 kts | 221° |
| 2026-05-04 22:58 | -25.65485 | -48.12337 | 34153 ft | 416 kts | 220° |
| 2026-05-04 22:59 | -25.69570 | -48.15243 | 34152 ft | 416 kts | 221° |
| 2026-05-04 22:59 | -25.74446 | -48.18715 | 34149 ft | 416 kts | 220° |
| 2026-05-04 23:00 | -25.79286 | -48.22165 | 34150 ft | 416 kts | 220° |
| 2026-05-04 23:00 | -25.84162 | -48.25643 | 34151 ft | 416 kts | 220° |
| 2026-05-04 23:01 | -25.89039 | -48.29126 | 34158 ft | 416 kts | 220° |
| 2026-05-04 23:01 | -25.93915 | -48.32612 | 34153 ft | 416 kts | 220° |
| 2026-05-04 23:02 | -25.98780 | -48.36094 | 34153 ft | 416 kts | 220° |
| 2026-05-04 23:02 | -26.03646 | -48.39579 | 34154 ft | 416 kts | 220° |
| 2026-05-04 23:03 | -26.08513 | -48.43068 | 34151 ft | 416 kts | 220° |
| 2026-05-04 23:03 | -26.13351 | -48.46541 | 34151 ft | 416 kts | 220° |
| 2026-05-04 23:04 | -26.18224 | -48.50043 | 34147 ft | 416 kts | 220° |
| 2026-05-04 23:04 | -26.23082 | -48.53536 | 34145 ft | 416 kts | 220° |
| 2026-05-04 23:05 | -26.27949 | -48.57040 | 34147 ft | 417 kts | 220° |
| 2026-05-04 23:05 | -26.32817 | -48.60552 | 34146 ft | 417 kts | 220° |
| 2026-05-04 23:06 | -26.37695 | -48.64072 | 34142 ft | 417 kts | 220° |
| 2026-05-04 23:06 | -26.42539 | -48.67573 | 34146 ft | 418 kts | 220° |
| 2026-05-04 23:07 | -26.47414 | -48.71118 | 34146 ft | 418 kts | 220° |
| 2026-05-04 23:07 | -26.52267 | -48.74692 | 34152 ft | 418 kts | 220° |
| 2026-05-04 23:08 | -26.57121 | -48.78266 | 34158 ft | 418 kts | 220° |
| 2026-05-04 23:08 | -26.61986 | -48.81852 | 34156 ft | 419 kts | 219° |
| 2026-05-04 23:09 | -26.66849 | -48.85438 | 34089 ft | 418 kts | 216° |
| 2026-05-04 23:09 | -26.71732 | -48.88992 | 34150 ft | 419 kts | 216° |
| 2026-05-04 23:10 | -26.76598 | -48.92546 | 34153 ft | 417 kts | 216° |
| 2026-05-04 23:10 | -26.81456 | -48.96098 | 34148 ft | 417 kts | 216° |
| 2026-05-04 23:11 | -26.86310 | -48.99652 | 34157 ft | 416 kts | 215° |
| 2026-05-04 23:11 | -26.91110 | -49.03169 | 34156 ft | 414 kts | 215° |
| 2026-05-04 23:12 | -26.95941 | -49.06713 | 34165 ft | 413 kts | 215° |
| 2026-05-04 23:12 | -27.00749 | -49.10244 | 34167 ft | 412 kts | 215° |
| 2026-05-04 23:13 | -27.05545 | -49.13769 | 34153 ft | 412 kts | 215° |
| 2026-05-04 23:13 | -27.10336 | -49.17295 | 34169 ft | 411 kts | 215° |
| 2026-05-04 23:14 | -27.15077 | -49.20787 | 34174 ft | 410 kts | 214° |
| 2026-05-04 23:14 | -27.19847 | -49.24305 | 34157 ft | 410 kts | 214° |
| 2026-05-04 23:15 | -27.24610 | -49.27821 | 34172 ft | 409 kts | 214° |
| 2026-05-04 23:15 | -27.29365 | -49.31335 | 34183 ft | 409 kts | 214° |
| 2026-05-04 23:16 | -27.34091 | -49.34831 | 34188 ft | 408 kts | 214° |
| 2026-05-04 23:16 | -27.38839 | -49.38347 | 34175 ft | 408 kts | 214° |
| 2026-05-04 23:17 | -27.43586 | -49.41865 | 34178 ft | 409 kts | 214° |
| 2026-05-04 23:17 | -27.48336 | -49.45389 | 34183 ft | 409 kts | 214° |
| 2026-05-04 23:18 | -27.53066 | -49.48902 | 34183 ft | 409 kts | 214° |
| 2026-05-04 23:18 | -27.57554 | -49.52806 | 34176 ft | 408 kts | 221° |
| 2026-05-04 23:19 | -27.61808 | -49.57043 | 34191 ft | 408 kts | 221° |
| 2026-05-04 23:19 | -27.66030 | -49.61278 | 34181 ft | 408 kts | 221° |
| 2026-05-04 23:20 | -27.70271 | -49.65539 | 34193 ft | 408 kts | 222° |
| 2026-05-04 23:20 | -27.74517 | -49.69810 | 34188 ft | 408 kts | 222° |
| 2026-05-04 23:21 | -27.78761 | -49.74084 | 34182 ft | 408 kts | 222° |
| 2026-05-04 23:21 | -27.82998 | -49.78354 | 34194 ft | 408 kts | 222° |
| 2026-05-04 23:22 | -27.87234 | -49.82630 | 34191 ft | 408 kts | 222° |
| 2026-05-04 23:22 | -27.91469 | -49.86908 | 34189 ft | 408 kts | 222° |
| 2026-05-04 23:23 | -27.95674 | -49.91161 | 34190 ft | 408 kts | 222° |
| 2026-05-04 23:23 | -27.99903 | -49.95442 | 34191 ft | 408 kts | 222° |
| 2026-05-04 23:24 | -28.04131 | -49.99728 | 34189 ft | 408 kts | 222° |
| 2026-05-04 23:24 | -28.08364 | -50.04023 | 34187 ft | 408 kts | 222° |
| 2026-05-04 23:25 | -28.12591 | -50.08318 | 34180 ft | 408 kts | 222° |
| 2026-05-04 23:25 | -28.16813 | -50.12611 | 34183 ft | 408 kts | 222° |
| 2026-05-04 23:26 | -28.21018 | -50.16892 | 34176 ft | 408 kts | 222° |
| 2026-05-04 23:26 | -28.25236 | -50.21191 | 34170 ft | 408 kts | 222° |
| 2026-05-04 23:27 | -28.29459 | -50.25500 | 34178 ft | 408 kts | 222° |
| 2026-05-04 23:27 | -28.33680 | -50.29812 | 34167 ft | 408 kts | 222° |
| 2026-05-04 23:28 | -28.37899 | -50.34127 | 34166 ft | 407 kts | 222° |
| 2026-05-04 23:28 | -28.42105 | -50.38433 | 34163 ft | 407 kts | 222° |
| 2026-05-04 23:29 | -28.46311 | -50.42743 | 34165 ft | 407 kts | 222° |
| 2026-05-04 23:29 | -28.50492 | -50.47033 | 34155 ft | 407 kts | 222° |
| 2026-05-04 23:30 | -28.54692 | -50.51348 | 34151 ft | 406 kts | 222° |
| 2026-05-04 23:30 | -28.58890 | -50.55664 | 34149 ft | 406 kts | 222° |
| 2026-05-04 23:31 | -28.63081 | -50.59979 | 34151 ft | 406 kts | 222° |
| 2026-05-04 23:31 | -28.67275 | -50.64302 | 34142 ft | 406 kts | 222° |
| 2026-05-04 23:32 | -28.71462 | -50.68623 | 34147 ft | 406 kts | 223° |
| 2026-05-04 23:32 | -28.75625 | -50.72922 | 34142 ft | 406 kts | 222° |
| 2026-05-04 23:33 | -28.79807 | -50.77247 | 34134 ft | 405 kts | 223° |
| 2026-05-04 23:33 | -28.83989 | -50.81577 | 34132 ft | 406 kts | 223° |
| 2026-05-04 23:34 | -28.88169 | -50.85910 | 34139 ft | 405 kts | 223° |
| 2026-05-04 23:34 | -28.92340 | -50.90238 | 34134 ft | 405 kts | 223° |
| 2026-05-04 23:35 | -28.96511 | -50.94572 | 34131 ft | 406 kts | 223° |
| 2026-05-04 23:35 | -29.00664 | -50.98891 | 34125 ft | 406 kts | 223° |
| 2026-05-04 23:36 | -29.04834 | -51.03232 | 34124 ft | 406 kts | 223° |
| 2026-05-04 23:36 | -29.09004 | -51.07578 | 34125 ft | 405 kts | 223° |
| 2026-05-04 23:37 | -29.13173 | -51.11927 | 34129 ft | 405 kts | 223° |
| 2026-05-04 23:37 | -29.17335 | -51.16274 | 34131 ft | 405 kts | 223° |
| 2026-05-04 23:38 | -29.21194 | -51.20942 | 34138 ft | 404 kts | 232° |
| 2026-05-04 23:38 | -29.24628 | -51.25993 | 34131 ft | 405 kts | 231° |
| 2026-05-04 23:39 | -29.28075 | -51.31088 | 34129 ft | 404 kts | 232° |
| 2026-05-04 23:39 | -29.31513 | -51.36181 | 34114 ft | 404 kts | 232° |
| 2026-05-04 23:40 | -29.34953 | -51.41283 | 34111 ft | 404 kts | 232° |
| 2026-05-04 23:40 | -29.38387 | -51.46383 | 34096 ft | 404 kts | 232° |
| 2026-05-04 23:41 | -29.41818 | -51.51483 | 34086 ft | 403 kts | 232° |
| 2026-05-04 23:41 | -29.45240 | -51.56579 | 34071 ft | 402 kts | 232° |
| 2026-05-04 23:42 | -29.48634 | -51.61638 | 34059 ft | 402 kts | 232° |
| 2026-05-04 23:42 | -29.52048 | -51.66733 | 34057 ft | 403 kts | 232° |
| 2026-05-04 23:43 | -29.55462 | -51.71834 | 34055 ft | 402 kts | 232° |
| 2026-05-04 23:43 | -29.58867 | -51.76928 | 34064 ft | 402 kts | 232° |
| 2026-05-04 23:44 | -29.62266 | -51.82020 | 34050 ft | 402 kts | 232° |
| 2026-05-04 23:44 | -29.65667 | -51.87121 | 34052 ft | 401 kts | 232° |
| 2026-05-04 23:45 | -29.69060 | -51.92216 | 34048 ft | 401 kts | 232° |
| 2026-05-04 23:45 | -29.72449 | -51.97312 | 34044 ft | 401 kts | 232° |
| 2026-05-04 23:46 | -29.75833 | -52.02407 | 34041 ft | 400 kts | 232° |
| 2026-05-04 23:46 | -29.79209 | -52.07496 | 34043 ft | 400 kts | 233° |
| 2026-05-04 23:47 | -29.82579 | -52.12583 | 34041 ft | 399 kts | 233° |
| 2026-05-04 23:47 | -29.85926 | -52.17641 | 34039 ft | 399 kts | 233° |
| 2026-05-04 23:48 | -29.89297 | -52.22741 | 34042 ft | 399 kts | 233° |
| 2026-05-04 23:48 | -29.92094 | -52.26978 | 34035 ft | 399 kts | 233° |
| 2026-05-04 23:49 | -29.95453 | -52.32072 | 34038 ft | 399 kts | 233° |
| 2026-05-04 23:49 | -29.98809 | -52.37169 | 34040 ft | 399 kts | 233° |
| 2026-05-04 23:50 | -30.02165 | -52.42271 | 34041 ft | 399 kts | 233° |
| 2026-05-04 23:50 | -30.05518 | -52.47376 | 34043 ft | 399 kts | 233° |
| 2026-05-04 23:51 | -30.08854 | -52.52460 | 34042 ft | 399 kts | 233° |
| 2026-05-04 23:51 | -30.12200 | -52.57566 | 34042 ft | 399 kts | 233° |
| 2026-05-04 23:52 | -30.15547 | -52.62681 | 34046 ft | 399 kts | 233° |
| 2026-05-04 23:52 | -30.18877 | -52.67778 | 34038 ft | 398 kts | 233° |
| 2026-05-04 23:53 | -30.22216 | -52.72892 | 34042 ft | 399 kts | 233° |
| 2026-05-04 23:53 | -30.25558 | -52.78018 | 34040 ft | 399 kts | 233° |
| 2026-05-04 23:54 | -30.28880 | -52.83120 | 34039 ft | 399 kts | 234° |
| 2026-05-04 23:54 | -30.32214 | -52.88247 | 34040 ft | 399 kts | 234° |
| 2026-05-04 23:55 | -30.35549 | -52.93383 | 34042 ft | 399 kts | 234° |
| 2026-05-04 23:56 | -30.40547 | -53.01092 | 34040 ft | 399 kts | 234° |
| 2026-05-04 23:56 | -30.43881 | -53.06241 | 34038 ft | 399 kts | 234° |
| 2026-05-04 23:57 | -30.47208 | -53.11387 | 34036 ft | 399 kts | 234° |
| 2026-05-04 23:57 | -30.50513 | -53.16507 | 34041 ft | 399 kts | 234° |
| 2026-05-04 23:58 | -30.53836 | -53.21659 | 34036 ft | 399 kts | 234° |
| 2026-05-04 23:58 | -30.57164 | -53.26826 | 34039 ft | 399 kts | 234° |
| 2026-05-04 23:59 | -30.60483 | -53.31987 | 34037 ft | 399 kts | 234° |
| 2026-05-04 23:59 | -30.63803 | -53.37155 | 34044 ft | 399 kts | 234° |
| 2026-05-05 00:00 | -30.67097 | -53.42291 | 34037 ft | 399 kts | 234° |
| 2026-05-05 00:00 | -30.70411 | -53.47463 | 34038 ft | 399 kts | 235° |
| 2026-05-05 00:01 | -30.73719 | -53.52634 | 34034 ft | 399 kts | 235° |
| 2026-05-05 00:01 | -30.77027 | -53.57811 | 34038 ft | 399 kts | 235° |
| 2026-05-05 00:02 | -30.80341 | -53.63003 | 34035 ft | 399 kts | 235° |
| 2026-05-05 00:02 | -30.83628 | -53.68162 | 34034 ft | 399 kts | 235° |
| 2026-05-05 00:03 | -30.86935 | -53.73357 | 34034 ft | 400 kts | 235° |
| 2026-05-05 00:03 | -30.90241 | -53.78558 | 34036 ft | 400 kts | 235° |
| 2026-05-05 00:04 | -30.93547 | -53.83766 | 34030 ft | 400 kts | 235° |
| 2026-05-05 00:04 | -30.96859 | -53.88990 | 34036 ft | 400 kts | 235° |
| 2026-05-05 00:05 | -31.00167 | -53.94215 | 34037 ft | 400 kts | 235° |
| 2026-05-05 00:05 | -31.03475 | -53.99447 | 34030 ft | 401 kts | 236° |
| 2026-05-05 00:06 | -31.06784 | -54.04688 | 34033 ft | 401 kts | 236° |
| 2026-05-05 00:06 | -31.10092 | -54.09934 | 34031 ft | 401 kts | 236° |
| 2026-05-05 00:07 | -31.13380 | -54.15154 | 34027 ft | 402 kts | 236° |
| 2026-05-05 00:07 | -31.16691 | -54.20419 | 34029 ft | 402 kts | 236° |
| 2026-05-05 00:08 | -31.20004 | -54.25693 | 34026 ft | 402 kts | 236° |
| 2026-05-05 00:08 | -31.23311 | -54.30966 | 34027 ft | 402 kts | 236° |
| 2026-05-05 00:09 | -31.26614 | -54.36237 | 34021 ft | 402 kts | 236° |
| 2026-05-05 00:09 | -31.29901 | -54.41488 | 34023 ft | 403 kts | 236° |
| 2026-05-05 00:10 | -31.33208 | -54.46781 | 34022 ft | 403 kts | 236° |
| 2026-05-05 00:10 | -31.36515 | -54.52080 | 34020 ft | 403 kts | 236° |
| 2026-05-05 00:11 | -31.39821 | -54.57382 | 34024 ft | 403 kts | 236° |
| 2026-05-05 00:11 | -31.43122 | -54.62685 | 34023 ft | 403 kts | 236° |
| 2026-05-05 00:11 | -31.44910 | -54.65176 | 34002 ft | 407 kts | 225° |
| 2026-05-05 00:12 | -31.47077 | -54.67318 | 34016 ft | 408 kts | 226° |
| 2026-05-05 00:12 | -31.51265 | -54.71803 | 34020 ft | 408 kts | 226° |
| 2026-05-05 00:13 | -31.55447 | -54.76311 | 34014 ft | 408 kts | 226° |
| 2026-05-05 00:13 | -31.59630 | -54.80829 | 34017 ft | 409 kts | 226° |
| 2026-05-05 00:14 | -31.63815 | -54.85354 | 34020 ft | 409 kts | 226° |
| 2026-05-05 00:14 | -31.67994 | -54.89879 | 34014 ft | 409 kts | 226° |
| 2026-05-05 00:15 | -31.72174 | -54.94411 | 34017 ft | 409 kts | 226° |
| 2026-05-05 00:15 | -31.76354 | -54.98947 | 34003 ft | 409 kts | 226° |
| 2026-05-05 00:16 | -31.80536 | -55.03493 | 34001 ft | 409 kts | 226° |
| 2026-05-05 00:16 | -31.84684 | -55.08008 | 34007 ft | 409 kts | 226° |
| 2026-05-05 00:17 | -31.88860 | -55.12559 | 34010 ft | 409 kts | 227° |
| 2026-05-05 00:17 | -31.93038 | -55.17117 | 34006 ft | 409 kts | 227° |
| 2026-05-05 00:18 | -31.97214 | -55.21680 | 34006 ft | 410 kts | 227° |
| 2026-05-05 00:18 | -32.01389 | -55.26248 | 34006 ft | 410 kts | 227° |
| 2026-05-05 00:19 | -32.05573 | -55.30830 | 34001 ft | 410 kts | 227° |
| 2026-05-05 00:19 | -32.09750 | -55.35412 | 34000 ft | 410 kts | 227° |
| 2026-05-05 00:20 | -32.13903 | -55.39973 | 33998 ft | 410 kts | 227° |
| 2026-05-05 00:20 | -32.18078 | -55.44565 | 34001 ft | 410 kts | 227° |
| 2026-05-05 00:21 | -32.22256 | -55.49166 | 34000 ft | 411 kts | 227° |
| 2026-05-05 00:21 | -32.26433 | -55.53771 | 33996 ft | 411 kts | 227° |
| 2026-05-05 00:22 | -32.30610 | -55.58382 | 33992 ft | 411 kts | 227° |
| 2026-05-05 00:22 | -32.34782 | -55.62995 | 33992 ft | 411 kts | 227° |
| 2026-05-05 00:23 | -32.38933 | -55.67590 | 33991 ft | 411 kts | 227° |
| 2026-05-05 00:23 | -32.43109 | -55.72219 | 33991 ft | 411 kts | 227° |
| 2026-05-05 00:24 | -32.47285 | -55.76854 | 33988 ft | 411 kts | 227° |
| 2026-05-05 00:24 | -32.51453 | -55.81487 | 33987 ft | 411 kts | 227° |
| 2026-05-05 00:25 | -32.55622 | -55.86127 | 33993 ft | 411 kts | 227° |
| 2026-05-05 00:25 | -32.59763 | -55.90741 | 33988 ft | 411 kts | 227° |
| 2026-05-05 00:26 | -32.63929 | -55.95390 | 33988 ft | 411 kts | 227° |
| 2026-05-05 00:26 | -32.68088 | -56.00038 | 33984 ft | 411 kts | 227° |
| 2026-05-05 00:27 | -32.72252 | -56.04697 | 33982 ft | 411 kts | 227° |
| 2026-05-05 00:27 | -32.76415 | -56.09360 | 33988 ft | 411 kts | 227° |
| 2026-05-05 00:28 | -32.80570 | -56.14023 | 33981 ft | 411 kts | 227° |
| 2026-05-05 00:28 | -32.84726 | -56.18691 | 33982 ft | 411 kts | 227° |
| 2026-05-05 00:29 | -32.88856 | -56.23335 | 33980 ft | 411 kts | 227° |
| 2026-05-05 00:29 | -32.93009 | -56.28011 | 33976 ft | 411 kts | 227° |
| 2026-05-05 00:30 | -32.97158 | -56.32690 | 33974 ft | 411 kts | 227° |
| 2026-05-05 00:30 | -33.01299 | -56.37385 | 33974 ft | 411 kts | 227° |
| 2026-05-05 00:31 | -33.05445 | -56.42087 | 33977 ft | 410 kts | 227° |
| 2026-05-05 00:31 | -33.09557 | -56.46757 | 33973 ft | 410 kts | 227° |
| 2026-05-05 00:32 | -33.13692 | -56.51458 | 33974 ft | 410 kts | 227° |
| 2026-05-05 00:32 | -33.17824 | -56.56162 | 33975 ft | 410 kts | 227° |
| 2026-05-05 00:33 | -33.21951 | -56.60864 | 33971 ft | 410 kts | 228° |
| 2026-05-05 00:33 | -33.26073 | -56.65565 | 33973 ft | 410 kts | 228° |
| 2026-05-05 00:34 | -33.30163 | -56.70236 | 33973 ft | 410 kts | 228° |
| 2026-05-05 00:34 | -33.34285 | -56.74951 | 33973 ft | 410 kts | 228° |
| 2026-05-05 00:35 | -33.38402 | -56.79667 | 33975 ft | 409 kts | 228° |
| 2026-05-05 00:35 | -33.42514 | -56.84382 | 33980 ft | 409 kts | 228° |
| 2026-05-05 00:36 | -33.46624 | -56.89103 | 33972 ft | 409 kts | 228° |
| 2026-05-05 00:36 | -33.50731 | -56.93826 | 33974 ft | 409 kts | 228° |
| 2026-05-05 00:37 | -33.54812 | -56.98526 | 33975 ft | 409 kts | 228° |
| 2026-05-05 00:37 | -33.58912 | -57.03254 | 33980 ft | 409 kts | 228° |
| 2026-05-05 00:38 | -33.63010 | -57.07988 | 33973 ft | 408 kts | 228° |
| 2026-05-05 00:38 | -33.67107 | -57.12725 | 33966 ft | 408 kts | 228° |
| 2026-05-05 00:39 | -33.71199 | -57.17464 | 33970 ft | 408 kts | 228° |
| 2026-05-05 00:39 | -33.74596 | -57.21403 | 33966 ft | 408 kts | 228° |
| 2026-05-05 00:40 | -33.78679 | -57.26144 | 33963 ft | 408 kts | 228° |
| 2026-05-05 00:40 | -33.83433 | -57.31672 | 33969 ft | 408 kts | 228° |
| 2026-05-05 00:41 | -33.86845 | -57.35643 | 33486 ft | 404 kts | 229° |
| 2026-05-05 00:41 | -33.88846 | -57.37976 | 32670 ft | 406 kts | 228° |
| 2026-05-05 00:41 | -33.90889 | -57.40360 | 31753 ft | 411 kts | 228° |
| 2026-05-05 00:41 | -33.92950 | -57.42765 | 31012 ft | 413 kts | 228° |
| 2026-05-05 00:42 | -33.95016 | -57.45178 | 30318 ft | 413 kts | 228° |
| 2026-05-05 00:42 | -33.97080 | -57.47590 | 29498 ft | 415 kts | 228° |
| 2026-05-05 00:42 | -33.99146 | -57.50006 | 28851 ft | 413 kts | 228° |
| 2026-05-05 00:42 | -34.01220 | -57.52434 | 28258 ft | 416 kts | 228° |
| 2026-05-05 00:43 | -34.03298 | -57.54866 | 27669 ft | 417 kts | 228° |
| 2026-05-05 00:43 | -34.05369 | -57.57294 | 27074 ft | 414 kts | 228° |
| 2026-05-05 00:43 | -34.07426 | -57.59706 | 26491 ft | 409 kts | 228° |
| 2026-05-05 00:43 | -34.09435 | -57.62064 | 25927 ft | 406 kts | 229° |
| 2026-05-05 00:44 | -34.11481 | -57.64468 | 25343 ft | 404 kts | 229° |
| 2026-05-05 00:44 | -34.13459 | -57.66793 | 24783 ft | 401 kts | 229° |
| 2026-05-05 00:44 | -34.15452 | -57.69136 | 24228 ft | 399 kts | 229° |
| 2026-05-05 00:44 | -34.17438 | -57.71473 | 23667 ft | 398 kts | 229° |
| 2026-05-05 00:45 | -34.19416 | -57.73803 | 23040 ft | 396 kts | 229° |
| 2026-05-05 00:45 | -34.21379 | -57.76116 | 22453 ft | 393 kts | 229° |
| 2026-05-05 00:45 | -34.23328 | -57.78415 | 21914 ft | 390 kts | 228° |
| 2026-05-05 00:45 | -34.25261 | -57.80696 | 21373 ft | 386 kts | 228° |
| 2026-05-05 00:46 | -34.27175 | -57.82957 | 20843 ft | 383 kts | 228° |
| 2026-05-05 00:46 | -34.29077 | -57.85205 | 20316 ft | 381 kts | 228° |
| 2026-05-05 00:46 | -34.30966 | -57.87439 | 19802 ft | 379 kts | 228° |
| 2026-05-05 00:46 | -34.32848 | -57.89666 | 19277 ft | 377 kts | 228° |
| 2026-05-05 00:47 | -34.34718 | -57.91879 | 18765 ft | 375 kts | 228° |
| 2026-05-05 00:47 | -34.36584 | -57.94090 | 18255 ft | 374 kts | 228° |
| 2026-05-05 00:47 | -34.38439 | -57.96289 | 17675 ft | 372 kts | 228° |
| 2026-05-05 00:47 | -34.40282 | -57.98479 | 17149 ft | 369 kts | 229° |
| 2026-05-05 00:48 | -34.41751 | -58.00979 | 16569 ft | 363 kts | 246° |
| 2026-05-05 00:48 | -34.42710 | -58.03744 | 16142 ft | 358 kts | 248° |
| 2026-05-05 00:48 | -34.43628 | -58.06469 | 15717 ft | 354 kts | 249° |
| 2026-05-05 00:48 | -34.44540 | -58.09229 | 15294 ft | 351 kts | 249° |
| 2026-05-05 00:49 | -34.45428 | -58.11968 | 14861 ft | 348 kts | 250° |
| 2026-05-05 00:49 | -34.45857 | -58.14827 | 14382 ft | 348 kts | 268° |
| 2026-05-05 00:49 | -34.45595 | -58.17739 | 13959 ft | 348 kts | 279° |
| 2026-05-05 00:49 | -34.45032 | -58.20583 | 13511 ft | 347 kts | 281° |
| 2026-05-05 00:50 | -34.44433 | -58.23403 | 13031 ft | 345 kts | 281° |
| 2026-05-05 00:50 | -34.43822 | -58.26209 | 12564 ft | 343 kts | 281° |
| 2026-05-05 00:50 | -34.43203 | -58.28998 | 12094 ft | 342 kts | 282° |
| 2026-05-05 00:50 | -34.42577 | -58.31791 | 11432 ft | 346 kts | 282° |
| 2026-05-05 00:51 | -34.41940 | -58.34629 | 10714 ft | 349 kts | 282° |
| 2026-05-05 00:51 | -34.41305 | -58.37431 | 10047 ft | 342 kts | 282° |
| 2026-05-05 00:51 | -34.40678 | -58.40187 | 9357 ft | 336 kts | 283° |
| 2026-05-05 00:51 | -34.40063 | -58.42887 | 8668 ft | 330 kts | 283° |
| 2026-05-05 00:52 | -34.39464 | -58.45515 | 8019 ft | 324 kts | 284° |
| 2026-05-05 00:52 | -34.38875 | -58.48097 | 7405 ft | 319 kts | 284° |
| 2026-05-05 00:52 | -34.38293 | -58.50647 | 6958 ft | 309 kts | 285° |
| 2026-05-05 00:52 | -34.37728 | -58.53115 | 6590 ft | 298 kts | 285° |
| 2026-05-05 00:53 | -34.37197 | -58.55475 | 6235 ft | 288 kts | 283° |
| 2026-05-05 00:53 | -34.37156 | -58.57868 | 5632 ft | 286 kts | 258° |
| 2026-05-05 00:53 | -34.37980 | -58.60032 | 5098 ft | 286 kts | 234° |
| 2026-05-05 00:53 | -34.39507 | -58.61562 | 4516 ft | 289 kts | 209° |
| 2026-05-05 00:54 | -34.41449 | -58.62158 | 3917 ft | 289 kts | 184° |
| 2026-05-05 00:54 | -34.43356 | -58.62047 | 3352 ft | 274 kts | 179° |
| 2026-05-05 00:54 | -34.45199 | -58.61693 | 2756 ft | 263 kts | 158° |
| 2026-05-05 00:54 | -34.46509 | -58.60368 | 2499 ft | 235 kts | 116° |
| 2026-05-05 00:55 | -34.47108 | -58.58652 | 2428 ft | 216 kts | 112° |
| 2026-05-05 00:55 | -34.47755 | -58.57055 | 2324 ft | 202 kts | 115° |
| 2026-05-05 00:55 | -34.48412 | -58.55585 | 2176 ft | 196 kts | 117° |
| 2026-05-05 00:55 | -34.49091 | -58.54174 | 2054 ft | 194 kts | 118° |
| 2026-05-05 00:56 | -34.49774 | -58.52832 | 1850 ft | 182 kts | 120° |
| 2026-05-05 00:56 | -34.50411 | -58.51585 | 1657 ft | 163 kts | 117° |
| 2026-05-05 00:56 | -34.51001 | -58.50435 | 1608 ft | 161 kts | 121° |
| 2026-05-05 00:56 | -34.51628 | -58.49316 | 1369 ft | 159 kts | 121° |
| 2026-05-05 00:57 | -34.52216 | -58.48187 | 1163 ft | 159 kts | 119° |
| 2026-05-05 00:57 | -34.52842 | -58.47099 | 963 ft | 157 kts | 123° |
| 2026-05-05 00:57 | -34.53449 | -58.46010 | 730 ft | 154 kts | 120° |
| 2026-05-05 00:57 | -34.54032 | -58.44938 | 543 ft | 154 kts | 124° |
| 2026-05-05 00:58 | -34.54640 | -58.43861 | 321 ft | 160 kts | 127° |
| 2026-05-05 00:58 | -34.55282 | -58.42728 | 86 ft | 156 kts | 123° |
| 2026-05-05 00:58 | -34.55840 | -58.41732 | 27 ft | 116 kts | 125° |
| 2026-05-05 00:58 | -34.56164 | -58.41147 | 29 ft | 41 kts | 124° |
| 2026-05-05 00:59 | -34.56229 | -58.40927 | 28 ft | 16 kts | 97° |
| 2026-05-05 00:59 | -34.56237 | -58.40797 | 28 ft | 16 kts | 92° |
| 2026-05-05 00:59 | -34.56203 | -58.40782 | 28 ft | 7 kts | 316° |
| 2026-05-05 00:59 | -34.56171 | -58.40833 | 28 ft | 8 kts | 304° |
| 2026-05-05 01:00 | -34.56134 | -58.40897 | 28 ft | 10 kts | 308° |
| 2026-05-05 01:00 | -34.56080 | -58.40960 | 28 ft | 12 kts | 311° |
| 2026-05-05 01:00 | -34.56026 | -58.41036 | 28 ft | 8 kts | 319° |
| 2026-05-05 01:00 | -34.55978 | -58.41079 | 28 ft | 7 kts | 319° |
| 2026-05-05 01:01 | -34.55960 | -58.41101 | 28 ft | 4 kts | 315° |
| 2026-05-05 01:01 | -34.55936 | -58.41100 | 28 ft | 4 kts | 24° |
| 2026-05-05 01:01 | -34.55922 | -58.41088 | 28 ft | 3 kts | 40° |
| 2026-05-05 01:01 | -34.55914 | -58.41080 | 28 ft | 0 kts | 40° |
| 2026-05-05 01:02 | -34.55914 | -58.41079 | 28 ft | 0 kts | 40° |